Stowe, Vermont
Current Conditions -  °F | °C
As of 4:20 PM on Thursday 23 Oct 2014 (Local Time) from KMVL Reporting Station
Overcast Overcast  
Wind Chill: 44°   Ceiling: 1400
Heat Index: 47°   Visibility: 10mi
Dew Point: 43°   Wind: 7mph
Humidity: 86%   Direction: 350°N
Pressure: 29.9"   Gusts: NA
Location:  44.47°N, 72.68°W
Report Text: KMVL 232020Z AUTO 35006KT 10SM OVC014 08/06 A2990 RMK AO2 T00830061
Loading
Personal Weather Stations






























Interactive Weather Map New forecast layout! Learn more

10-Day Weather Forecast

Advertisements
Track Severe Weather on mobile